sensor_id;sensor_type;location;lat;lon;timestamp;P1;durP1;ratioP1;P2;durP2;ratioP2
48203;SDS011;33994;50.998;5.864;2022-11-20T00:01:48;30.42;;;15.48;;
48203;SDS011;33994;50.998;5.864;2022-11-20T00:04:35;29.58;;;15.07;;
48203;SDS011;33994;50.998;5.864;2022-11-20T00:07:20;32.20;;;16.13;;
48203;SDS011;33994;50.998;5.864;2022-11-20T00:10:06;31.67;;;14.95;;
48203;SDS011;33994;50.998;5.864;2022-11-20T00:12:52;31.05;;;15.43;;
48203;SDS011;33994;50.998;5.864;2022-11-20T00:15:37;26.83;;;14.57;;
48203;SDS011;33994;50.998;5.864;2022-11-20T00:18:22;30.40;;;15.75;;
48203;SDS011;33994;50.998;5.864;2022-11-20T00:21:10;30.67;;;15.93;;
48203;SDS011;33994;50.998;5.864;2022-11-20T00:23:58;31.83;;;15.70;;
48203;SDS011;33994;50.998;5.864;2022-11-20T00:26:44;33.17;;;15.52;;
48203;SDS011;33994;50.998;5.864;2022-11-20T00:29:29;27.98;;;14.68;;
48203;SDS011;33994;50.998;5.864;2022-11-20T00:32:14;28.92;;;15.85;;
48203;SDS011;33994;50.998;5.864;2022-11-20T00:35:00;29.17;;;15.73;;
48203;SDS011;33994;50.998;5.864;2022-11-20T00:37:46;35.90;;;16.02;;
48203;SDS011;33994;50.998;5.864;2022-11-20T00:40:32;20.80;;;11.43;;
48203;SDS011;33994;50.998;5.864;2022-11-20T00:43:17;29.25;;;15.30;;
48203;SDS011;33994;50.998;5.864;2022-11-20T00:46:03;30.85;;;15.95;;
48203;SDS011;33994;50.998;5.864;2022-11-20T00:48:51;34.63;;;16.05;;
48203;SDS011;33994;50.998;5.864;2022-11-20T00:51:36;28.08;;;14.95;;
48203;SDS011;33994;50.998;5.864;2022-11-20T00:54:24;32.03;;;15.80;;
48203;SDS011;33994;50.998;5.864;2022-11-20T00:57:09;61.85;;;21.58;;
48203;SDS011;33994;50.998;5.864;2022-11-20T00:59:55;28.08;;;14.70;;
48203;SDS011;33994;50.998;5.864;2022-11-20T01:02:40;29.58;;;15.60;;
48203;SDS011;33994;50.998;5.864;2022-11-20T01:05:25;33.38;;;16.17;;
48203;SDS011;33994;50.998;5.864;2022-11-20T01:08:11;34.13;;;15.63;;
48203;SDS011;33994;50.998;5.864;2022-11-20T01:10:59;33.25;;;15.70;;
48203;SDS011;33994;50.998;5.864;2022-11-20T01:13:46;32.42;;;15.02;;
48203;SDS011;33994;50.998;5.864;2022-11-20T01:16:34;29.50;;;15.60;;
48203;SDS011;33994;50.998;5.864;2022-11-20T01:19:22;32.88;;;15.45;;
48203;SDS011;33994;50.998;5.864;2022-11-20T01:22:08;27.92;;;15.57;;
48203;SDS011;33994;50.998;5.864;2022-11-20T01:24:53;29.95;;;15.88;;
48203;SDS011;33994;50.998;5.864;2022-11-20T01:27:40;28.48;;;15.90;;
48203;SDS011;33994;50.998;5.864;2022-11-20T01:30:25;33.05;;;15.55;;
48203;SDS011;33994;50.998;5.864;2022-11-20T01:33:11;32.03;;;14.82;;
48203;SDS011;33994;50.998;5.864;2022-11-20T01:36:02;26.83;;;14.95;;
48203;SDS011;33994;50.998;5.864;2022-11-20T01:38:50;27.02;;;14.43;;
48203;SDS011;33994;50.998;5.864;2022-11-20T01:41:36;36.90;;;16.25;;
48203;SDS011;33994;50.998;5.864;2022-11-20T01:44:51;31.65;;;15.20;;
48203;SDS011;33994;50.998;5.864;2022-11-20T01:47:39;27.38;;;14.60;;
48203;SDS011;33994;50.998;5.864;2022-11-20T01:50:29;27.50;;;14.52;;
48203;SDS011;33994;50.998;5.864;2022-11-20T01:53:15;29.35;;;15.13;;
48203;SDS011;33994;50.998;5.864;2022-11-20T01:56:03;32.20;;;14.60;;
48203;SDS011;33994;50.998;5.864;2022-11-20T01:58:54;27.65;;;14.45;;
48203;SDS011;33994;50.998;5.864;2022-11-20T02:01:44;27.65;;;15.32;;
48203;SDS011;33994;50.998;5.864;2022-11-20T02:04:30;48.45;;;17.73;;
48203;SDS011;33994;50.998;5.864;2022-11-20T02:07:15;25.20;;;13.60;;
48203;SDS011;33994;50.998;5.864;2022-11-20T02:10:02;26.38;;;13.45;;
48203;SDS011;33994;50.998;5.864;2022-11-20T02:12:47;28.38;;;14.85;;
48203;SDS011;33994;50.998;5.864;2022-11-20T02:15:51;27.85;;;15.07;;
48203;SDS011;33994;50.998;5.864;2022-11-20T02:18:38;30.48;;;14.70;;
48203;SDS011;33994;50.998;5.864;2022-11-20T02:21:27;31.60;;;15.32;;
48203;SDS011;33994;50.998;5.864;2022-11-20T02:24:19;49.67;;;17.25;;
48203;SDS011;33994;50.998;5.864;2022-11-20T02:27:07;29.73;;;15.10;;
48203;SDS011;33994;50.998;5.864;2022-11-20T02:29:57;29.95;;;15.75;;
48203;SDS011;33994;50.998;5.864;2022-11-20T02:32:45;30.75;;;15.60;;
48203;SDS011;33994;50.998;5.864;2022-11-20T02:35:44;30.70;;;15.70;;
48203;SDS011;33994;50.998;5.864;2022-11-20T02:38:30;29.70;;;15.50;;
48203;SDS011;33994;50.998;5.864;2022-11-20T02:41:17;32.00;;;16.13;;
48203;SDS011;33994;50.998;5.864;2022-11-20T02:44:03;33.17;;;15.77;;
48203;SDS011;33994;50.998;5.864;2022-11-20T02:46:50;30.70;;;15.32;;
48203;SDS011;33994;50.998;5.864;2022-11-20T02:49:35;29.38;;;14.60;;
48203;SDS011;33994;50.998;5.864;2022-11-20T02:52:20;30.80;;;16.15;;
48203;SDS011;33994;50.998;5.864;2022-11-20T02:55:06;30.92;;;16.17;;
48203;SDS011;33994;50.998;5.864;2022-11-20T02:57:53;31.23;;;15.30;;
48203;SDS011;33994;50.998;5.864;2022-11-20T03:00:39;32.33;;;15.48;;
48203;SDS011;33994;50.998;5.864;2022-11-20T03:03:24;37.55;;;14.75;;
48203;SDS011;33994;50.998;5.864;2022-11-20T03:06:10;28.13;;;14.65;;
48203;SDS011;33994;50.998;5.864;2022-11-20T03:08:56;38.35;;;15.98;;
48203;SDS011;33994;50.998;5.864;2022-11-20T03:11:41;58.22;;;20.30;;
48203;SDS011;33994;50.998;5.864;2022-11-20T03:14:28;27.70;;;15.63;;
48203;SDS011;33994;50.998;5.864;2022-11-20T03:17:13;30.38;;;14.88;;
48203;SDS011;33994;50.998;5.864;2022-11-20T03:20:00;33.22;;;14.98;;
48203;SDS011;33994;50.998;5.864;2022-11-20T03:22:46;36.55;;;16.75;;
48203;SDS011;33994;50.998;5.864;2022-11-20T03:25:32;34.10;;;15.27;;
48203;SDS011;33994;50.998;5.864;2022-11-20T03:28:17;31.27;;;14.93;;
48203;SDS011;33994;50.998;5.864;2022-11-20T03:31:08;28.48;;;14.40;;
48203;SDS011;33994;50.998;5.864;2022-11-20T03:33:55;26.65;;;13.88;;
48203;SDS011;33994;50.998;5.864;2022-11-20T03:36:41;25.27;;;13.68;;
48203;SDS011;33994;50.998;5.864;2022-11-20T03:39:27;25.00;;;12.60;;
48203;SDS011;33994;50.998;5.864;2022-11-20T03:42:13;24.95;;;12.95;;
48203;SDS011;33994;50.998;5.864;2022-11-20T03:45:12;24.13;;;12.88;;
48203;SDS011;33994;50.998;5.864;2022-11-20T03:47:59;21.50;;;12.32;;
48203;SDS011;33994;50.998;5.864;2022-11-20T03:50:45;26.42;;;12.60;;
48203;SDS011;33994;50.998;5.864;2022-11-20T03:53:31;33.88;;;15.88;;
48203;SDS011;33994;50.998;5.864;2022-11-20T03:56:17;23.95;;;12.15;;
48203;SDS011;33994;50.998;5.864;2022-11-20T03:59:04;22.65;;;12.10;;
48203;SDS011;33994;50.998;5.864;2022-11-20T04:01:51;30.75;;;13.30;;
48203;SDS011;33994;50.998;5.864;2022-11-20T04:04:38;25.35;;;12.75;;
48203;SDS011;33994;50.998;5.864;2022-11-20T04:07:24;25.55;;;12.73;;
48203;SDS011;33994;50.998;5.864;2022-11-20T04:10:09;23.48;;;12.48;;
48203;SDS011;33994;50.998;5.864;2022-11-20T04:12:54;22.02;;;12.30;;
48203;SDS011;33994;50.998;5.864;2022-11-20T04:15:40;27.45;;;13.25;;
48203;SDS011;33994;50.998;5.864;2022-11-20T04:18:25;22.52;;;11.90;;
48203;SDS011;33994;50.998;5.864;2022-11-20T04:21:11;26.17;;;12.35;;
48203;SDS011;33994;50.998;5.864;2022-11-20T04:23:57;17.60;;;9.43;;
48203;SDS011;33994;50.998;5.864;2022-11-20T04:26:43;26.73;;;12.55;;
48203;SDS011;33994;50.998;5.864;2022-11-20T04:29:28;23.98;;;13.27;;
48203;SDS011;33994;50.998;5.864;2022-11-20T04:32:13;41.25;;;15.30;;
48203;SDS011;33994;50.998;5.864;2022-11-20T04:34:59;27.38;;;13.07;;
48203;SDS011;33994;50.998;5.864;2022-11-20T04:37:46;36.83;;;14.57;;
48203;SDS011;33994;50.998;5.864;2022-11-20T04:40:31;26.85;;;13.52;;
48203;SDS011;33994;50.998;5.864;2022-11-20T04:43:17;23.80;;;12.85;;
48203;SDS011;33994;50.998;5.864;2022-11-20T04:46:03;27.73;;;12.30;;
48203;SDS011;33994;50.998;5.864;2022-11-20T04:48:48;42.63;;;15.18;;
48203;SDS011;33994;50.998;5.864;2022-11-20T04:51:33;21.67;;;12.55;;
48203;SDS011;33994;50.998;5.864;2022-11-20T04:54:20;26.40;;;13.05;;
48203;SDS011;33994;50.998;5.864;2022-11-20T04:57:05;25.45;;;12.70;;
48203;SDS011;33994;50.998;5.864;2022-11-20T04:59:51;21.38;;;11.35;;
48203;SDS011;33994;50.998;5.864;2022-11-20T05:02:36;25.90;;;12.88;;
48203;SDS011;33994;50.998;5.864;2022-11-20T05:05:21;24.25;;;13.05;;
48203;SDS011;33994;50.998;5.864;2022-11-20T05:08:07;22.60;;;12.32;;
48203;SDS011;33994;50.998;5.864;2022-11-20T05:10:53;24.40;;;13.07;;
48203;SDS011;33994;50.998;5.864;2022-11-20T05:13:39;25.48;;;12.80;;
48203;SDS011;33994;50.998;5.864;2022-11-20T05:16:25;23.20;;;12.18;;
48203;SDS011;33994;50.998;5.864;2022-11-20T05:19:10;27.25;;;13.13;;
48203;SDS011;33994;50.998;5.864;2022-11-20T05:21:56;40.95;;;15.45;;
48203;SDS011;33994;50.998;5.864;2022-11-20T05:24:41;40.28;;;14.82;;
48203;SDS011;33994;50.998;5.864;2022-11-20T05:27:28;27.25;;;13.52;;
48203;SDS011;33994;50.998;5.864;2022-11-20T05:30:14;26.08;;;13.90;;
48203;SDS011;33994;50.998;5.864;2022-11-20T05:33:00;25.25;;;12.93;;
48203;SDS011;33994;50.998;5.864;2022-11-20T05:35:45;26.13;;;13.93;;
48203;SDS011;33994;50.998;5.864;2022-11-20T05:38:32;24.73;;;13.60;;
48203;SDS011;33994;50.998;5.864;2022-11-20T05:41:18;26.92;;;13.07;;
48203;SDS011;33994;50.998;5.864;2022-11-20T05:44:07;24.80;;;13.15;;
48203;SDS011;33994;50.998;5.864;2022-11-20T05:46:55;43.90;;;15.80;;
48203;SDS011;33994;50.998;5.864;2022-11-20T05:49:40;29.17;;;14.32;;
48203;SDS011;33994;50.998;5.864;2022-11-20T05:52:27;27.48;;;14.43;;
48203;SDS011;33994;50.998;5.864;2022-11-20T05:55:13;30.67;;;13.88;;
48203;SDS011;33994;50.998;5.864;2022-11-20T05:57:59;27.60;;;13.85;;
48203;SDS011;33994;50.998;5.864;2022-11-20T06:00:46;32.75;;;14.60;;
48203;SDS011;33994;50.998;5.864;2022-11-20T06:03:32;29.27;;;14.18;;
48203;SDS011;33994;50.998;5.864;2022-11-20T06:06:17;27.92;;;13.95;;
48203;SDS011;33994;50.998;5.864;2022-11-20T06:09:03;27.92;;;14.90;;
48203;SDS011;33994;50.998;5.864;2022-11-20T06:11:49;28.98;;;14.55;;
48203;SDS011;33994;50.998;5.864;2022-11-20T06:14:34;30.75;;;13.77;;
48203;SDS011;33994;50.998;5.864;2022-11-20T06:17:21;27.75;;;15.05;;
48203;SDS011;33994;50.998;5.864;2022-11-20T06:20:07;32.15;;;14.60;;
48203;SDS011;33994;50.998;5.864;2022-11-20T06:22:53;29.92;;;15.25;;
48203;SDS011;33994;50.998;5.864;2022-11-20T06:25:39;38.03;;;16.63;;
48203;SDS011;33994;50.998;5.864;2022-11-20T06:28:24;34.83;;;17.25;;
48203;SDS011;33994;50.998;5.864;2022-11-20T06:31:10;31.55;;;15.98;;
48203;SDS011;33994;50.998;5.864;2022-11-20T06:33:59;34.75;;;16.02;;
48203;SDS011;33994;50.998;5.864;2022-11-20T06:36:44;33.97;;;16.02;;
48203;SDS011;33994;50.998;5.864;2022-11-20T06:39:29;35.40;;;16.27;;
48203;SDS011;33994;50.998;5.864;2022-11-20T06:42:15;38.55;;;17.35;;
48203;SDS011;33994;50.998;5.864;2022-11-20T06:45:00;45.08;;;18.27;;
48203;SDS011;33994;50.998;5.864;2022-11-20T06:47:46;33.55;;;16.80;;
48203;SDS011;33994;50.998;5.864;2022-11-20T06:50:33;40.40;;;18.48;;
48203;SDS011;33994;50.998;5.864;2022-11-20T06:53:18;38.17;;;16.92;;
48203;SDS011;33994;50.998;5.864;2022-11-20T06:56:04;40.50;;;18.65;;
48203;SDS011;33994;50.998;5.864;2022-11-20T06:58:51;45.22;;;18.55;;
48203;SDS011;33994;50.998;5.864;2022-11-20T07:01:36;41.65;;;19.02;;
48203;SDS011;33994;50.998;5.864;2022-11-20T07:04:21;46.50;;;19.67;;
48203;SDS011;33994;50.998;5.864;2022-11-20T07:07:08;42.47;;;19.65;;
48203;SDS011;33994;50.998;5.864;2022-11-20T07:09:54;39.92;;;19.27;;
48203;SDS011;33994;50.998;5.864;2022-11-20T07:12:39;41.47;;;19.25;;
48203;SDS011;33994;50.998;5.864;2022-11-20T07:15:25;40.60;;;17.50;;
48203;SDS011;33994;50.998;5.864;2022-11-20T07:18:10;41.75;;;19.33;;
48203;SDS011;33994;50.998;5.864;2022-11-20T07:20:56;48.92;;;21.10;;
48203;SDS011;33994;50.998;5.864;2022-11-20T07:23:46;36.88;;;19.33;;
48203;SDS011;33994;50.998;5.864;2022-11-20T07:26:31;44.13;;;18.73;;
48203;SDS011;33994;50.998;5.864;2022-11-20T07:29:17;40.65;;;17.45;;
48203;SDS011;33994;50.998;5.864;2022-11-20T07:32:03;42.03;;;20.33;;
48203;SDS011;33994;50.998;5.864;2022-11-20T07:34:49;42.28;;;19.02;;
48203;SDS011;33994;50.998;5.864;2022-11-20T07:37:35;45.03;;;19.00;;
48203;SDS011;33994;50.998;5.864;2022-11-20T07:40:22;42.05;;;19.60;;
48203;SDS011;33994;50.998;5.864;2022-11-20T07:43:07;51.10;;;20.13;;
48203;SDS011;33994;50.998;5.864;2022-11-20T07:45:54;45.50;;;20.65;;
48203;SDS011;33994;50.998;5.864;2022-11-20T07:48:40;44.25;;;18.02;;
48203;SDS011;33994;50.998;5.864;2022-11-20T07:51:25;51.35;;;22.00;;
48203;SDS011;33994;50.998;5.864;2022-11-20T07:54:11;48.05;;;19.70;;
48203;SDS011;33994;50.998;5.864;2022-11-20T07:56:58;45.63;;;20.58;;
48203;SDS011;33994;50.998;5.864;2022-11-20T07:59:43;46.47;;;20.23;;
48203;SDS011;33994;50.998;5.864;2022-11-20T08:02:29;40.80;;;18.67;;
48203;SDS011;33994;50.998;5.864;2022-11-20T08:05:15;46.88;;;19.20;;
48203;SDS011;33994;50.998;5.864;2022-11-20T08:08:00;41.15;;;17.92;;
48203;SDS011;33994;50.998;5.864;2022-11-20T08:10:45;44.42;;;17.10;;
48203;SDS011;33994;50.998;5.864;2022-11-20T08:13:32;36.92;;;18.23;;
48203;SDS011;33994;50.998;5.864;2022-11-20T08:16:35;36.80;;;16.52;;
48203;SDS011;33994;50.998;5.864;2022-11-20T08:19:21;36.45;;;16.50;;
48203;SDS011;33994;50.998;5.864;2022-11-20T08:22:06;33.50;;;15.48;;
48203;SDS011;33994;50.998;5.864;2022-11-20T08:24:52;31.05;;;14.93;;
48203;SDS011;33994;50.998;5.864;2022-11-20T08:27:37;36.63;;;15.95;;
48203;SDS011;33994;50.998;5.864;2022-11-20T08:30:24;37.60;;;15.93;;
48203;SDS011;33994;50.998;5.864;2022-11-20T08:33:09;33.58;;;16.13;;
48203;SDS011;33994;50.998;5.864;2022-11-20T08:35:57;32.50;;;15.95;;
48203;SDS011;33994;50.998;5.864;2022-11-20T08:38:46;31.02;;;14.50;;
48203;SDS011;33994;50.998;5.864;2022-11-20T08:41:33;31.73;;;15.48;;
48203;SDS011;33994;50.998;5.864;2022-11-20T08:44:18;35.22;;;15.82;;
48203;SDS011;33994;50.998;5.864;2022-11-20T08:47:05;46.67;;;17.88;;
48203;SDS011;33994;50.998;5.864;2022-11-20T08:49:50;36.47;;;15.80;;
48203;SDS011;33994;50.998;5.864;2022-11-20T08:52:36;33.67;;;15.25;;
48203;SDS011;33994;50.998;5.864;2022-11-20T08:55:21;34.70;;;15.02;;
48203;SDS011;33994;50.998;5.864;2022-11-20T08:58:07;35.72;;;15.95;;
48203;SDS011;33994;50.998;5.864;2022-11-20T09:00:52;39.60;;;16.35;;
48203;SDS011;33994;50.998;5.864;2022-11-20T09:03:39;37.90;;;16.23;;
48203;SDS011;33994;50.998;5.864;2022-11-20T09:06:25;34.88;;;15.52;;
48203;SDS011;33994;50.998;5.864;2022-11-20T09:09:11;41.83;;;16.48;;
48203;SDS011;33994;50.998;5.864;2022-11-20T09:11:57;40.67;;;17.75;;
48203;SDS011;33994;50.998;5.864;2022-11-20T09:14:42;40.80;;;17.17;;
48203;SDS011;33994;50.998;5.864;2022-11-20T09:17:27;42.33;;;17.67;;
48203;SDS011;33994;50.998;5.864;2022-11-20T09:20:15;44.72;;;19.58;;
48203;SDS011;33994;50.998;5.864;2022-11-20T09:23:01;37.63;;;17.58;;
48203;SDS011;33994;50.998;5.864;2022-11-20T09:25:46;45.38;;;18.48;;
48203;SDS011;33994;50.998;5.864;2022-11-20T09:28:32;47.65;;;18.50;;
48203;SDS011;33994;50.998;5.864;2022-11-20T09:31:19;50.25;;;19.85;;
48203;SDS011;33994;50.998;5.864;2022-11-20T09:34:07;53.33;;;21.25;;
48203;SDS011;33994;50.998;5.864;2022-11-20T09:36:55;52.22;;;20.20;;
48203;SDS011;33994;50.998;5.864;2022-11-20T09:39:40;44.53;;;19.45;;
48203;SDS011;33994;50.998;5.864;2022-11-20T09:42:30;42.65;;;17.60;;
48203;SDS011;33994;50.998;5.864;2022-11-20T09:45:23;40.75;;;18.67;;
48203;SDS011;33994;50.998;5.864;2022-11-20T09:48:25;36.95;;;16.83;;
48203;SDS011;33994;50.998;5.864;2022-11-20T09:51:24;42.95;;;17.48;;
48203;SDS011;33994;50.998;5.864;2022-11-20T09:54:19;40.35;;;18.05;;
48203;SDS011;33994;50.998;5.864;2022-11-20T09:57:09;43.58;;;18.45;;
48203;SDS011;33994;50.998;5.864;2022-11-20T09:59:59;42.22;;;18.98;;
48203;SDS011;33994;50.998;5.864;2022-11-20T10:02:58;43.58;;;17.45;;
48203;SDS011;33994;50.998;5.864;2022-11-20T10:05:47;48.47;;;19.00;;
48203;SDS011;33994;50.998;5.864;2022-11-20T10:08:38;41.95;;;17.75;;
48203;SDS011;33994;50.998;5.864;2022-11-20T10:11:30;42.08;;;18.30;;
48203;SDS011;33994;50.998;5.864;2022-11-20T10:14:23;45.28;;;18.63;;
48203;SDS011;33994;50.998;5.864;2022-11-20T10:17:21;44.58;;;19.27;;
48203;SDS011;33994;50.998;5.864;2022-11-20T10:20:16;46.03;;;20.80;;
48203;SDS011;33994;50.998;5.864;2022-11-20T10:26:21;49.38;;;19.92;;
48203;SDS011;33994;50.998;5.864;2022-11-20T10:29:13;50.38;;;20.13;;
48203;SDS011;33994;50.998;5.864;2022-11-20T10:32:01;41.20;;;18.50;;
48203;SDS011;33994;50.998;5.864;2022-11-20T10:34:50;46.60;;;18.67;;
48203;SDS011;33994;50.998;5.864;2022-11-20T10:37:40;42.58;;;18.65;;
48203;SDS011;33994;50.998;5.864;2022-11-20T10:40:30;44.17;;;18.58;;
48203;SDS011;33994;50.998;5.864;2022-11-20T10:43:21;44.58;;;19.98;;
48203;SDS011;33994;50.998;5.864;2022-11-20T10:46:15;54.25;;;20.17;;
48203;SDS011;33994;50.998;5.864;2022-11-20T10:49:04;47.28;;;20.20;;
48203;SDS011;33994;50.998;5.864;2022-11-20T10:51:57;53.00;;;19.67;;
48203;SDS011;33994;50.998;5.864;2022-11-20T10:54:49;42.15;;;18.15;;
48203;SDS011;33994;50.998;5.864;2022-11-20T10:57:50;46.60;;;19.20;;
48203;SDS011;33994;50.998;5.864;2022-11-20T11:00:39;48.22;;;19.42;;
48203;SDS011;33994;50.998;5.864;2022-11-20T11:03:27;48.88;;;21.02;;
48203;SDS011;33994;50.998;5.864;2022-11-20T11:06:17;58.08;;;20.77;;
48203;SDS011;33994;50.998;5.864;2022-11-20T11:09:12;46.20;;;20.13;;
48203;SDS011;33994;50.998;5.864;2022-11-20T11:12:01;48.42;;;18.98;;
48203;SDS011;33994;50.998;5.864;2022-11-20T11:14:47;51.97;;;20.73;;
48203;SDS011;33994;50.998;5.864;2022-11-20T11:17:34;54.00;;;21.27;;
48203;SDS011;33994;50.998;5.864;2022-11-20T11:20:21;51.10;;;20.35;;
48203;SDS011;33994;50.998;5.864;2022-11-20T11:23:10;56.95;;;21.38;;
48203;SDS011;33994;50.998;5.864;2022-11-20T11:26:18;54.97;;;20.38;;
48203;SDS011;33994;50.998;5.864;2022-11-20T11:29:15;55.22;;;21.15;;
48203;SDS011;33994;50.998;5.864;2022-11-20T11:32:03;58.40;;;21.30;;
48203;SDS011;33994;50.998;5.864;2022-11-20T11:35:00;53.33;;;20.17;;
48203;SDS011;33994;50.998;5.864;2022-11-20T11:37:47;64.57;;;21.65;;
48203;SDS011;33994;50.998;5.864;2022-11-20T11:40:35;59.45;;;20.25;;
48203;SDS011;33994;50.998;5.864;2022-11-20T11:43:23;59.65;;;21.40;;
48203;SDS011;33994;50.998;5.864;2022-11-20T11:46:28;53.15;;;20.17;;
48203;SDS011;33994;50.998;5.864;2022-11-20T11:49:17;54.60;;;19.08;;
48203;SDS011;33994;50.998;5.864;2022-11-20T11:52:04;60.35;;;21.15;;
48203;SDS011;33994;50.998;5.864;2022-11-20T11:55:00;54.15;;;19.95;;
48203;SDS011;33994;50.998;5.864;2022-11-20T11:57:49;52.13;;;20.02;;
48203;SDS011;33994;50.998;5.864;2022-11-20T12:00:40;60.40;;;21.70;;
48203;SDS011;33994;50.998;5.864;2022-11-20T12:03:35;60.92;;;21.15;;
48203;SDS011;33994;50.998;5.864;2022-11-20T12:06:22;57.60;;;20.77;;
48203;SDS011;33994;50.998;5.864;2022-11-20T12:09:10;70.00;;;23.13;;
48203;SDS011;33994;50.998;5.864;2022-11-20T12:12:02;62.55;;;21.77;;
48203;SDS011;33994;50.998;5.864;2022-11-20T12:14:54;60.97;;;20.90;;
48203;SDS011;33994;50.998;5.864;2022-11-20T12:17:42;61.10;;;21.65;;
48203;SDS011;33994;50.998;5.864;2022-11-20T12:20:28;58.33;;;20.92;;
48203;SDS011;33994;50.998;5.864;2022-11-20T12:23:23;53.08;;;19.85;;
48203;SDS011;33994;50.998;5.864;2022-11-20T12:26:15;65.97;;;22.73;;
48203;SDS011;33994;50.998;5.864;2022-11-20T12:29:09;53.10;;;19.05;;
48203;SDS011;33994;50.998;5.864;2022-11-20T12:32:22;54.28;;;20.23;;
48203;SDS011;33994;50.998;5.864;2022-11-20T12:35:31;56.55;;;19.48;;
48203;SDS011;33994;50.998;5.864;2022-11-20T12:38:39;51.70;;;20.08;;
48203;SDS011;33994;50.998;5.864;2022-11-20T12:41:44;53.10;;;19.88;;
48203;SDS011;33994;50.998;5.864;2022-11-20T12:45:04;52.13;;;20.08;;
48203;SDS011;33994;50.998;5.864;2022-11-20T12:47:59;57.22;;;20.45;;
48203;SDS011;33994;50.998;5.864;2022-11-20T12:51:00;52.13;;;18.75;;
48203;SDS011;33994;50.998;5.864;2022-11-20T12:54:23;39.28;;;18.02;;
48203;SDS011;33994;50.998;5.864;2022-11-20T12:57:23;46.90;;;17.42;;
48203;SDS011;33994;50.998;5.864;2022-11-20T13:00:16;56.90;;;20.92;;
48203;SDS011;33994;50.998;5.864;2022-11-20T13:06:24;35.80;;;15.93;;
48203;SDS011;33994;50.998;5.864;2022-11-20T13:09:10;42.27;;;16.23;;
48203;SDS011;33994;50.998;5.864;2022-11-20T13:12:01;41.67;;;17.05;;
48203;SDS011;33994;50.998;5.864;2022-11-20T13:14:52;37.83;;;15.18;;
48203;SDS011;33994;50.998;5.864;2022-11-20T13:17:45;38.38;;;15.23;;
48203;SDS011;33994;50.998;5.864;2022-11-20T13:20:40;33.35;;;14.75;;
48203;SDS011;33994;50.998;5.864;2022-11-20T13:23:27;31.65;;;14.45;;
48203;SDS011;33994;50.998;5.864;2022-11-20T13:26:17;33.43;;;13.43;;
48203;SDS011;33994;50.998;5.864;2022-11-20T13:29:07;43.75;;;16.77;;
48203;SDS011;33994;50.998;5.864;2022-11-20T13:32:02;33.53;;;12.60;;
48203;SDS011;33994;50.998;5.864;2022-11-20T13:34:54;26.17;;;12.10;;
48203;SDS011;33994;50.998;5.864;2022-11-20T13:37:41;25.30;;;10.68;;
48203;SDS011;33994;50.998;5.864;2022-11-20T13:40:27;18.10;;;8.50;;
48203;SDS011;33994;50.998;5.864;2022-11-20T13:43:19;22.08;;;9.18;;
48203;SDS011;33994;50.998;5.864;2022-11-20T13:46:09;20.25;;;7.68;;
48203;SDS011;33994;50.998;5.864;2022-11-20T13:48:55;16.17;;;5.88;;
48203;SDS011;33994;50.998;5.864;2022-11-20T13:51:44;15.70;;;4.85;;
48203;SDS011;33994;50.998;5.864;2022-11-20T13:54:39;13.30;;;4.57;;
48203;SDS011;33994;50.998;5.864;2022-11-20T13:57:39;9.65;;;4.03;;
48203;SDS011;33994;50.998;5.864;2022-11-20T14:00:57;10.23;;;4.30;;
48203;SDS011;33994;50.998;5.864;2022-11-20T14:03:45;8.90;;;3.30;;
48203;SDS011;33994;50.998;5.864;2022-11-20T14:06:33;6.47;;;3.03;;
48203;SDS011;33994;50.998;5.864;2022-11-20T14:09:27;8.88;;;2.78;;
48203;SDS011;33994;50.998;5.864;2022-11-20T14:12:15;5.10;;;1.73;;
48203;SDS011;33994;50.998;5.864;2022-11-20T14:15:02;3.10;;;1.75;;
48203;SDS011;33994;50.998;5.864;2022-11-20T14:17:48;3.65;;;1.23;;
48203;SDS011;33994;50.998;5.864;2022-11-20T14:20:33;2.65;;;1.10;;
48203;SDS011;33994;50.998;5.864;2022-11-20T14:23:23;6.28;;;1.30;;
48203;SDS011;33994;50.998;5.864;2022-11-20T14:26:13;4.07;;;1.30;;
48203;SDS011;33994;50.998;5.864;2022-11-20T14:28:59;4.68;;;1.00;;
48203;SDS011;33994;50.998;5.864;2022-11-20T14:31:45;4.38;;;1.48;;
48203;SDS011;33994;50.998;5.864;2022-11-20T14:34:32;3.92;;;1.30;;
48203;SDS011;33994;50.998;5.864;2022-11-20T14:37:23;6.00;;;1.27;;
48203;SDS011;33994;50.998;5.864;2022-11-20T14:40:24;3.47;;;1.17;;
48203;SDS011;33994;50.998;5.864;2022-11-20T14:43:21;4.13;;;1.38;;
48203;SDS011;33994;50.998;5.864;2022-11-20T14:46:08;4.40;;;1.90;;
48203;SDS011;33994;50.998;5.864;2022-11-20T14:48:55;3.87;;;1.37;;
48203;SDS011;33994;50.998;5.864;2022-11-20T14:51:43;2.78;;;1.17;;
48203;SDS011;33994;50.998;5.864;2022-11-20T14:54:30;4.32;;;1.50;;
48203;SDS011;33994;50.998;5.864;2022-11-20T14:57:21;3.42;;;1.55;;
48203;SDS011;33994;50.998;5.864;2022-11-20T15:00:21;6.18;;;2.20;;
48203;SDS011;33994;50.998;5.864;2022-11-20T15:03:14;5.90;;;1.95;;
48203;SDS011;33994;50.998;5.864;2022-11-20T15:06:00;13.73;;;3.45;;
48203;SDS011;33994;50.998;5.864;2022-11-20T15:08:50;7.88;;;2.33;;
48203;SDS011;33994;50.998;5.864;2022-11-20T15:11:36;7.13;;;2.90;;
48203;SDS011;33994;50.998;5.864;2022-11-20T15:14:22;7.93;;;2.80;;
48203;SDS011;33994;50.998;5.864;2022-11-20T15:17:10;6.88;;;2.28;;
48203;SDS011;33994;50.998;5.864;2022-11-20T15:19:56;6.85;;;2.40;;
48203;SDS011;33994;50.998;5.864;2022-11-20T15:22:42;7.45;;;2.60;;
48203;SDS011;33994;50.998;5.864;2022-11-20T15:25:28;9.05;;;2.60;;
48203;SDS011;33994;50.998;5.864;2022-11-20T15:28:16;3.58;;;2.28;;
48203;SDS011;33994;50.998;5.864;2022-11-20T15:31:03;7.38;;;3.15;;
48203;SDS011;33994;50.998;5.864;2022-11-20T15:33:50;12.18;;;3.92;;
48203;SDS011;33994;50.998;5.864;2022-11-20T15:36:36;4.55;;;2.80;;
48203;SDS011;33994;50.998;5.864;2022-11-20T15:39:21;7.15;;;2.35;;
48203;SDS011;33994;50.998;5.864;2022-11-20T15:42:07;6.85;;;3.67;;
48203;SDS011;33994;50.998;5.864;2022-11-20T15:44:52;8.32;;;3.40;;
48203;SDS011;33994;50.998;5.864;2022-11-20T15:47:38;7.07;;;3.05;;
48203;SDS011;33994;50.998;5.864;2022-11-20T15:50:26;10.48;;;2.65;;
48203;SDS011;33994;50.998;5.864;2022-11-20T15:53:18;5.93;;;2.70;;
48203;SDS011;33994;50.998;5.864;2022-11-20T15:56:04;10.05;;;3.33;;
48203;SDS011;33994;50.998;5.864;2022-11-20T15:58:49;6.07;;;2.90;;
48203;SDS011;33994;50.998;5.864;2022-11-20T16:01:35;9.07;;;2.78;;
48203;SDS011;33994;50.998;5.864;2022-11-20T16:04:20;3.58;;;2.50;;
48203;SDS011;33994;50.998;5.864;2022-11-20T16:07:07;7.53;;;2.50;;
48203;SDS011;33994;50.998;5.864;2022-11-20T16:09:53;6.82;;;2.45;;
48203;SDS011;33994;50.998;5.864;2022-11-20T16:12:40;3.15;;;2.17;;
48203;SDS011;33994;50.998;5.864;2022-11-20T16:15:43;3.25;;;2.20;;
48203;SDS011;33994;50.998;5.864;2022-11-20T16:18:31;7.10;;;2.65;;
48203;SDS011;33994;50.998;5.864;2022-11-20T16:21:16;3.55;;;2.30;;
48203;SDS011;33994;50.998;5.864;2022-11-20T16:24:05;5.88;;;2.78;;
48203;SDS011;33994;50.998;5.864;2022-11-20T16:26:52;6.20;;;2.45;;
48203;SDS011;33994;50.998;5.864;2022-11-20T16:29:37;6.43;;;2.80;;
48203;SDS011;33994;50.998;5.864;2022-11-20T16:32:23;4.28;;;2.65;;
48203;SDS011;33994;50.998;5.864;2022-11-20T16:35:08;4.20;;;2.53;;
48203;SDS011;33994;50.998;5.864;2022-11-20T16:37:54;4.55;;;2.97;;